sensor_id;sensor_type;location;lat;lon;timestamp;P1;durP1;ratioP1;P2;durP2;ratioP2
11504;SDS011;5809;53.262;10.408;2023-05-06T00:01:04;6.80;;;4.80;;
11504;SDS011;5809;53.262;10.408;2023-05-06T00:03:31;7.07;;;4.33;;
11504;SDS011;5809;53.262;10.408;2023-05-06T00:05:58;13.67;;;5.10;;
11504;SDS011;5809;53.262;10.408;2023-05-06T00:08:27;11.27;;;5.30;;
11504;SDS011;5809;53.262;10.408;2023-05-06T00:10:55;8.67;;;5.20;;
11504;SDS011;5809;53.262;10.408;2023-05-06T00:13:22;11.40;;;5.53;;
11504;SDS011;5809;53.262;10.408;2023-05-06T00:15:50;10.47;;;5.67;;
11504;SDS011;5809;53.262;10.408;2023-05-06T00:18:17;8.90;;;5.10;;
11504;SDS011;5809;53.262;10.408;2023-05-06T00:20:46;8.90;;;5.40;;
11504;SDS011;5809;53.262;10.408;2023-05-06T00:23:13;9.70;;;5.27;;
11504;SDS011;5809;53.262;10.408;2023-05-06T00:25:40;11.77;;;5.30;;
11504;SDS011;5809;53.262;10.408;2023-05-06T00:28:07;9.03;;;5.80;;
11504;SDS011;5809;53.262;10.408;2023-05-06T00:30:35;6.97;;;5.13;;
11504;SDS011;5809;53.262;10.408;2023-05-06T00:33:03;10.40;;;5.90;;
11504;SDS011;5809;53.262;10.408;2023-05-06T00:35:30;9.00;;;5.80;;
11504;SDS011;5809;53.262;10.408;2023-05-06T00:38:05;8.17;;;5.40;;
11504;SDS011;5809;53.262;10.408;2023-05-06T00:40:33;12.13;;;6.43;;
11504;SDS011;5809;53.262;10.408;2023-05-06T00:43:00;9.63;;;5.60;;
11504;SDS011;5809;53.262;10.408;2023-05-06T00:45:27;10.20;;;5.57;;
11504;SDS011;5809;53.262;10.408;2023-05-06T00:47:55;11.93;;;5.80;;
11504;SDS011;5809;53.262;10.408;2023-05-06T00:50:23;12.27;;;6.20;;
11504;SDS011;5809;53.262;10.408;2023-05-06T00:52:52;10.50;;;5.73;;
11504;SDS011;5809;53.262;10.408;2023-05-06T00:55:20;8.40;;;5.47;;
11504;SDS011;5809;53.262;10.408;2023-05-06T00:57:47;9.37;;;5.80;;
11504;SDS011;5809;53.262;10.408;2023-05-06T01:00:15;9.53;;;5.40;;
11504;SDS011;5809;53.262;10.408;2023-05-06T01:02:42;11.40;;;5.97;;
11504;SDS011;5809;53.262;10.408;2023-05-06T01:05:09;12.40;;;6.43;;
11504;SDS011;5809;53.262;10.408;2023-05-06T01:07:41;11.13;;;5.93;;
11504;SDS011;5809;53.262;10.408;2023-05-06T01:10:16;12.23;;;6.83;;
11504;SDS011;5809;53.262;10.408;2023-05-06T01:12:52;12.40;;;6.87;;
11504;SDS011;5809;53.262;10.408;2023-05-06T01:15:27;10.73;;;6.20;;
11504;SDS011;5809;53.262;10.408;2023-05-06T01:17:59;15.57;;;7.37;;
11504;SDS011;5809;53.262;10.408;2023-05-06T01:20:30;9.50;;;6.83;;
11504;SDS011;5809;53.262;10.408;2023-05-06T01:22:59;13.03;;;7.07;;
11504;SDS011;5809;53.262;10.408;2023-05-06T01:25:28;12.67;;;6.90;;
11504;SDS011;5809;53.262;10.408;2023-05-06T01:27:56;12.50;;;6.93;;
11504;SDS011;5809;53.262;10.408;2023-05-06T01:30:23;14.93;;;6.90;;
11504;SDS011;5809;53.262;10.408;2023-05-06T01:32:59;12.67;;;7.20;;
11504;SDS011;5809;53.262;10.408;2023-05-06T01:35:34;11.43;;;7.00;;
11504;SDS011;5809;53.262;10.408;2023-05-06T01:38:10;11.17;;;7.10;;
11504;SDS011;5809;53.262;10.408;2023-05-06T01:40:43;10.87;;;6.97;;
11504;SDS011;5809;53.262;10.408;2023-05-06T01:43:18;12.10;;;6.43;;
11504;SDS011;5809;53.262;10.408;2023-05-06T01:45:45;10.77;;;6.97;;
11504;SDS011;5809;53.262;10.408;2023-05-06T01:48:17;11.03;;;7.33;;
11504;SDS011;5809;53.262;10.408;2023-05-06T01:50:46;11.67;;;7.40;;
11504;SDS011;5809;53.262;10.408;2023-05-06T01:53:14;12.03;;;7.50;;
11504;SDS011;5809;53.262;10.408;2023-05-06T01:55:41;13.53;;;7.43;;
11504;SDS011;5809;53.262;10.408;2023-05-06T01:58:09;15.33;;;7.50;;
11504;SDS011;5809;53.262;10.408;2023-05-06T02:00:36;11.90;;;7.27;;
11504;SDS011;5809;53.262;10.408;2023-05-06T02:03:03;17.47;;;8.10;;
11504;SDS011;5809;53.262;10.408;2023-05-06T02:05:30;15.17;;;8.10;;
11504;SDS011;5809;53.262;10.408;2023-05-06T02:07:57;10.60;;;7.27;;
11504;SDS011;5809;53.262;10.408;2023-05-06T02:10:24;11.47;;;7.57;;
11504;SDS011;5809;53.262;10.408;2023-05-06T02:12:51;12.80;;;7.90;;
11504;SDS011;5809;53.262;10.408;2023-05-06T02:15:19;15.40;;;8.43;;
11504;SDS011;5809;53.262;10.408;2023-05-06T02:17:46;12.13;;;7.43;;
11504;SDS011;5809;53.262;10.408;2023-05-06T02:20:13;12.27;;;8.07;;
11504;SDS011;5809;53.262;10.408;2023-05-06T02:22:40;12.30;;;7.23;;
11504;SDS011;5809;53.262;10.408;2023-05-06T02:25:08;13.80;;;8.40;;
11504;SDS011;5809;53.262;10.408;2023-05-06T02:27:35;12.27;;;7.97;;
11504;SDS011;5809;53.262;10.408;2023-05-06T02:30:02;12.07;;;7.73;;
11504;SDS011;5809;53.262;10.408;2023-05-06T02:32:31;10.90;;;8.13;;
11504;SDS011;5809;53.262;10.408;2023-05-06T02:34:58;12.20;;;7.97;;
11504;SDS011;5809;53.262;10.408;2023-05-06T02:37:25;10.80;;;7.73;;
11504;SDS011;5809;53.262;10.408;2023-05-06T02:39:52;14.80;;;8.67;;
11504;SDS011;5809;53.262;10.408;2023-05-06T02:42:19;12.07;;;8.63;;
11504;SDS011;5809;53.262;10.408;2023-05-06T02:44:46;14.33;;;8.70;;
11504;SDS011;5809;53.262;10.408;2023-05-06T02:47:13;13.00;;;8.63;;
11504;SDS011;5809;53.262;10.408;2023-05-06T02:49:41;12.17;;;9.17;;
11504;SDS011;5809;53.262;10.408;2023-05-06T02:52:08;13.03;;;9.33;;
11504;SDS011;5809;53.262;10.408;2023-05-06T02:54:35;15.73;;;8.80;;
11504;SDS011;5809;53.262;10.408;2023-05-06T02:57:02;13.27;;;8.97;;
11504;SDS011;5809;53.262;10.408;2023-05-06T02:59:29;13.40;;;8.60;;
11504;SDS011;5809;53.262;10.408;2023-05-06T03:01:56;10.97;;;8.80;;
11504;SDS011;5809;53.262;10.408;2023-05-06T03:04:22;12.13;;;8.77;;
11504;SDS011;5809;53.262;10.408;2023-05-06T03:06:51;11.80;;;8.90;;
11504;SDS011;5809;53.262;10.408;2023-05-06T03:09:18;14.63;;;8.83;;
11504;SDS011;5809;53.262;10.408;2023-05-06T03:11:45;13.53;;;8.77;;
11504;SDS011;5809;53.262;10.408;2023-05-06T03:14:12;10.40;;;8.57;;
11504;SDS011;5809;53.262;10.408;2023-05-06T03:16:39;12.80;;;8.30;;
11504;SDS011;5809;53.262;10.408;2023-05-06T03:19:06;12.23;;;8.97;;
11504;SDS011;5809;53.262;10.408;2023-05-06T03:21:33;12.20;;;8.53;;
11504;SDS011;5809;53.262;10.408;2023-05-06T03:24:02;11.37;;;8.33;;
11504;SDS011;5809;53.262;10.408;2023-05-06T03:26:29;11.80;;;7.83;;
11504;SDS011;5809;53.262;10.408;2023-05-06T03:28:55;14.00;;;8.00;;
11504;SDS011;5809;53.262;10.408;2023-05-06T03:31:23;13.37;;;9.10;;
11504;SDS011;5809;53.262;10.408;2023-05-06T03:33:50;11.47;;;8.70;;
11504;SDS011;5809;53.262;10.408;2023-05-06T03:36:16;10.07;;;8.10;;
11504;SDS011;5809;53.262;10.408;2023-05-06T03:38:44;12.43;;;8.13;;
11504;SDS011;5809;53.262;10.408;2023-05-06T03:41:12;13.23;;;8.60;;
11504;SDS011;5809;53.262;10.408;2023-05-06T03:43:39;11.50;;;8.70;;
11504;SDS011;5809;53.262;10.408;2023-05-06T03:46:06;13.57;;;9.70;;
11504;SDS011;5809;53.262;10.408;2023-05-06T03:48:32;11.00;;;9.17;;
11504;SDS011;5809;53.262;10.408;2023-05-06T03:51:00;13.27;;;9.50;;
11504;SDS011;5809;53.262;10.408;2023-05-06T03:53:27;12.87;;;9.60;;
11504;SDS011;5809;53.262;10.408;2023-05-06T03:55:54;13.37;;;10.23;;
11504;SDS011;5809;53.262;10.408;2023-05-06T03:58:22;15.67;;;10.60;;
11504;SDS011;5809;53.262;10.408;2023-05-06T04:00:49;11.10;;;9.90;;
11504;SDS011;5809;53.262;10.408;2023-05-06T04:03:16;15.40;;;10.50;;
11504;SDS011;5809;53.262;10.408;2023-05-06T04:05:43;14.30;;;9.40;;
11504;SDS011;5809;53.262;10.408;2023-05-06T04:08:11;17.43;;;9.70;;
11504;SDS011;5809;53.262;10.408;2023-05-06T04:10:38;15.47;;;9.63;;
11504;SDS011;5809;53.262;10.408;2023-05-06T04:13:05;13.93;;;9.00;;
11504;SDS011;5809;53.262;10.408;2023-05-06T04:15:33;10.90;;;9.10;;
11504;SDS011;5809;53.262;10.408;2023-05-06T04:18:01;14.73;;;9.23;;
11504;SDS011;5809;53.262;10.408;2023-05-06T04:20:29;12.63;;;9.50;;
11504;SDS011;5809;53.262;10.408;2023-05-06T04:22:55;12.73;;;8.83;;
11504;SDS011;5809;53.262;10.408;2023-05-06T04:25:22;12.87;;;9.07;;
11504;SDS011;5809;53.262;10.408;2023-05-06T04:27:49;12.07;;;9.60;;
11504;SDS011;5809;53.262;10.408;2023-05-06T04:30:16;14.60;;;9.40;;
11504;SDS011;5809;53.262;10.408;2023-05-06T04:32:46;14.07;;;9.40;;
11504;SDS011;5809;53.262;10.408;2023-05-06T04:35:13;13.83;;;9.97;;
11504;SDS011;5809;53.262;10.408;2023-05-06T04:37:40;15.63;;;10.10;;
11504;SDS011;5809;53.262;10.408;2023-05-06T04:40:07;13.67;;;10.23;;
11504;SDS011;5809;53.262;10.408;2023-05-06T04:42:37;13.43;;;9.90;;
11504;SDS011;5809;53.262;10.408;2023-05-06T04:45:04;16.17;;;9.50;;
11504;SDS011;5809;53.262;10.408;2023-05-06T04:47:32;15.43;;;10.00;;
11504;SDS011;5809;53.262;10.408;2023-05-06T04:50:01;14.40;;;10.50;;
11504;SDS011;5809;53.262;10.408;2023-05-06T04:52:28;13.17;;;10.50;;
11504;SDS011;5809;53.262;10.408;2023-05-06T04:54:56;13.43;;;10.47;;
11504;SDS011;5809;53.262;10.408;2023-05-06T04:57:23;13.77;;;10.27;;
11504;SDS011;5809;53.262;10.408;2023-05-06T04:59:50;10.80;;;9.17;;
11504;SDS011;5809;53.262;10.408;2023-05-06T05:02:17;10.10;;;9.03;;
11504;SDS011;5809;53.262;10.408;2023-05-06T05:04:43;10.87;;;9.30;;
11504;SDS011;5809;53.262;10.408;2023-05-06T05:07:12;12.43;;;8.83;;
11504;SDS011;5809;53.262;10.408;2023-05-06T05:09:39;12.80;;;9.23;;
11504;SDS011;5809;53.262;10.408;2023-05-06T05:12:06;10.60;;;8.83;;
11504;SDS011;5809;53.262;10.408;2023-05-06T05:14:33;12.00;;;9.17;;
11504;SDS011;5809;53.262;10.408;2023-05-06T05:17:00;11.43;;;9.03;;
11504;SDS011;5809;53.262;10.408;2023-05-06T05:19:27;10.70;;;8.97;;
11504;SDS011;5809;53.262;10.408;2023-05-06T05:21:53;10.90;;;9.53;;
11504;SDS011;5809;53.262;10.408;2023-05-06T05:24:22;13.70;;;9.00;;
11504;SDS011;5809;53.262;10.408;2023-05-06T05:26:49;15.33;;;9.23;;
11504;SDS011;5809;53.262;10.408;2023-05-06T05:29:15;16.50;;;9.10;;
11504;SDS011;5809;53.262;10.408;2023-05-06T05:31:42;12.77;;;9.23;;
11504;SDS011;5809;53.262;10.408;2023-05-06T05:34:09;13.10;;;9.10;;
11504;SDS011;5809;53.262;10.408;2023-05-06T05:36:36;10.33;;;8.63;;
11504;SDS011;5809;53.262;10.408;2023-05-06T05:39:03;9.93;;;7.93;;
11504;SDS011;5809;53.262;10.408;2023-05-06T05:41:31;13.87;;;9.00;;
11504;SDS011;5809;53.262;10.408;2023-05-06T05:43:58;11.07;;;9.00;;
11504;SDS011;5809;53.262;10.408;2023-05-06T05:46:25;11.77;;;8.90;;
11504;SDS011;5809;53.262;10.408;2023-05-06T05:48:52;11.87;;;8.80;;
11504;SDS011;5809;53.262;10.408;2023-05-06T05:51:19;9.67;;;8.67;;
11504;SDS011;5809;53.262;10.408;2023-05-06T05:53:47;11.17;;;8.37;;
11504;SDS011;5809;53.262;10.408;2023-05-06T05:56:15;11.53;;;8.80;;
11504;SDS011;5809;53.262;10.408;2023-05-06T05:58:44;11.33;;;9.03;;
11504;SDS011;5809;53.262;10.408;2023-05-06T06:01:11;9.70;;;8.67;;
11504;SDS011;5809;53.262;10.408;2023-05-06T06:03:38;10.60;;;8.47;;
11504;SDS011;5809;53.262;10.408;2023-05-06T06:06:06;12.23;;;8.60;;
11504;SDS011;5809;53.262;10.408;2023-05-06T06:08:33;11.07;;;8.77;;
11504;SDS011;5809;53.262;10.408;2023-05-06T06:11:00;8.97;;;7.43;;
11504;SDS011;5809;53.262;10.408;2023-05-06T06:13:28;12.75;;;8.50;;
11504;SDS011;5809;53.262;10.408;2023-05-06T06:15:56;12.33;;;8.30;;
11504;SDS011;5809;53.262;10.408;2023-05-06T06:18:24;9.93;;;8.30;;
11504;SDS011;5809;53.262;10.408;2023-05-06T06:20:51;11.80;;;8.17;;
11504;SDS011;5809;53.262;10.408;2023-05-06T06:23:18;11.20;;;8.67;;
11504;SDS011;5809;53.262;10.408;2023-05-06T06:25:45;11.43;;;8.07;;
11504;SDS011;5809;53.262;10.408;2023-05-06T06:28:13;8.50;;;7.60;;
11504;SDS011;5809;53.262;10.408;2023-05-06T06:30:40;10.40;;;8.10;;
11504;SDS011;5809;53.262;10.408;2023-05-06T06:33:08;13.10;;;8.88;;
11504;SDS011;5809;53.262;10.408;2023-05-06T06:35:35;10.10;;;8.57;;
11504;SDS011;5809;53.262;10.408;2023-05-06T06:38:02;10.60;;;8.23;;
11504;SDS011;5809;53.262;10.408;2023-05-06T06:40:28;9.67;;;7.97;;
11504;SDS011;5809;53.262;10.408;2023-05-06T06:42:55;10.73;;;8.70;;
11504;SDS011;5809;53.262;10.408;2023-05-06T06:45:22;11.37;;;8.30;;
11504;SDS011;5809;53.262;10.408;2023-05-06T06:47:49;10.43;;;8.40;;
11504;SDS011;5809;53.262;10.408;2023-05-06T06:50:18;9.52;;;8.30;;
11504;SDS011;5809;53.262;10.408;2023-05-06T06:52:45;9.70;;;8.68;;
11504;SDS011;5809;53.262;10.408;2023-05-06T06:55:12;10.93;;;8.20;;
11504;SDS011;5809;53.262;10.408;2023-05-06T06:57:39;11.88;;;8.40;;
11504;SDS011;5809;53.262;10.408;2023-05-06T07:00:06;11.30;;;8.60;;
11504;SDS011;5809;53.262;10.408;2023-05-06T07:02:33;10.57;;;8.50;;
11504;SDS011;5809;53.262;10.408;2023-05-06T07:05:01;11.00;;;9.20;;
11504;SDS011;5809;53.262;10.408;2023-05-06T07:07:29;9.48;;;8.27;;
11504;SDS011;5809;53.262;10.408;2023-05-06T07:09:56;13.07;;;9.10;;
11504;SDS011;5809;53.262;10.408;2023-05-06T07:12:24;13.03;;;9.70;;
11504;SDS011;5809;53.262;10.408;2023-05-06T07:14:52;11.57;;;8.43;;
11504;SDS011;5809;53.262;10.408;2023-05-06T07:17:19;10.13;;;8.60;;
11504;SDS011;5809;53.262;10.408;2023-05-06T07:19:46;12.37;;;9.03;;
11504;SDS011;5809;53.262;10.408;2023-05-06T07:22:13;11.33;;;8.70;;
11504;SDS011;5809;53.262;10.408;2023-05-06T07:24:41;12.33;;;9.77;;
11504;SDS011;5809;53.262;10.408;2023-05-06T07:27:08;12.18;;;9.20;;
11504;SDS011;5809;53.262;10.408;2023-05-06T07:29:35;14.00;;;9.20;;
11504;SDS011;5809;53.262;10.408;2023-05-06T07:32:02;12.43;;;9.50;;
11504;SDS011;5809;53.262;10.408;2023-05-06T07:34:29;12.83;;;9.70;;
11504;SDS011;5809;53.262;10.408;2023-05-06T07:36:58;13.60;;;10.03;;
11504;SDS011;5809;53.262;10.408;2023-05-06T07:39:25;10.73;;;9.50;;
11504;SDS011;5809;53.262;10.408;2023-05-06T07:41:53;11.47;;;9.00;;
11504;SDS011;5809;53.262;10.408;2023-05-06T07:44:20;15.23;;;11.70;;
11504;SDS011;5809;53.262;10.408;2023-05-06T07:46:47;11.40;;;9.67;;
11504;SDS011;5809;53.262;10.408;2023-05-06T07:49:14;13.83;;;10.20;;
11504;SDS011;5809;53.262;10.408;2023-05-06T07:51:41;12.77;;;9.53;;
11504;SDS011;5809;53.262;10.408;2023-05-06T07:54:09;14.57;;;9.20;;
11504;SDS011;5809;53.262;10.408;2023-05-06T07:56:36;15.23;;;8.67;;
11504;SDS011;5809;53.262;10.408;2023-05-06T07:59:05;10.00;;;8.40;;
11504;SDS011;5809;53.262;10.408;2023-05-06T08:01:31;12.93;;;8.47;;
11504;SDS011;5809;53.262;10.408;2023-05-06T08:03:58;13.23;;;8.20;;
11504;SDS011;5809;53.262;10.408;2023-05-06T08:06:25;13.10;;;8.77;;
11504;SDS011;5809;53.262;10.408;2023-05-06T08:08:52;9.77;;;8.13;;
11504;SDS011;5809;53.262;10.408;2023-05-06T08:11:19;9.27;;;8.27;;
11504;SDS011;5809;53.262;10.408;2023-05-06T08:13:46;11.83;;;8.60;;
11504;SDS011;5809;53.262;10.408;2023-05-06T08:16:14;15.60;;;9.33;;
11504;SDS011;5809;53.262;10.408;2023-05-06T08:18:41;9.53;;;7.70;;
11504;SDS011;5809;53.262;10.408;2023-05-06T08:21:08;12.27;;;8.60;;
11504;SDS011;5809;53.262;10.408;2023-05-06T08:23:35;10.10;;;8.07;;
11504;SDS011;5809;53.262;10.408;2023-05-06T08:26:02;10.85;;;8.45;;
11504;SDS011;5809;53.262;10.408;2023-05-06T08:28:29;11.30;;;8.00;;
11504;SDS011;5809;53.262;10.408;2023-05-06T08:30:56;11.65;;;8.65;;
11504;SDS011;5809;53.262;10.408;2023-05-06T08:33:24;14.45;;;8.63;;
11504;SDS011;5809;53.262;10.408;2023-05-06T08:35:51;12.20;;;8.18;;
11504;SDS011;5809;53.262;10.408;2023-05-06T08:38:21;13.07;;;8.13;;
11504;SDS011;5809;53.262;10.408;2023-05-06T08:40:49;9.77;;;8.70;;
11504;SDS011;5809;53.262;10.408;2023-05-06T08:43:18;10.68;;;8.73;;
11504;SDS011;5809;53.262;10.408;2023-05-06T08:45:46;12.47;;;9.63;;
11504;SDS011;5809;53.262;10.408;2023-05-06T08:48:14;12.73;;;8.77;;
11504;SDS011;5809;53.262;10.408;2023-05-06T08:50:43;13.67;;;9.57;;
11504;SDS011;5809;53.262;10.408;2023-05-06T08:53:10;12.73;;;8.63;;
11504;SDS011;5809;53.262;10.408;2023-05-06T08:55:39;14.93;;;9.50;;
11504;SDS011;5809;53.262;10.408;2023-05-06T08:58:06;12.17;;;8.93;;
11504;SDS011;5809;53.262;10.408;2023-05-06T09:00:35;9.93;;;8.13;;
11504;SDS011;5809;53.262;10.408;2023-05-06T09:03:03;11.17;;;8.67;;
11504;SDS011;5809;53.262;10.408;2023-05-06T09:05:30;13.25;;;8.85;;
11504;SDS011;5809;53.262;10.408;2023-05-06T09:07:58;10.73;;;8.35;;
11504;SDS011;5809;53.262;10.408;2023-05-06T09:10:29;13.65;;;9.02;;
11504;SDS011;5809;53.262;10.408;2023-05-06T09:12:57;14.82;;;9.07;;
11504;SDS011;5809;53.262;10.408;2023-05-06T09:15:23;11.77;;;8.90;;
11504;SDS011;5809;53.262;10.408;2023-05-06T09:17:51;12.25;;;8.80;;
11504;SDS011;5809;53.262;10.408;2023-05-06T09:20:20;12.43;;;9.65;;
11504;SDS011;5809;53.262;10.408;2023-05-06T09:22:47;12.37;;;11.10;;
11504;SDS011;5809;53.262;10.408;2023-05-06T09:25:15;13.30;;;9.43;;
11504;SDS011;5809;53.262;10.408;2023-05-06T09:27:42;11.25;;;9.80;;
11504;SDS011;5809;53.262;10.408;2023-05-06T09:30:10;13.27;;;9.77;;
11504;SDS011;5809;53.262;10.408;2023-05-06T09:32:38;17.38;;;9.65;;
11504;SDS011;5809;53.262;10.408;2023-05-06T09:35:06;15.00;;;9.20;;
11504;SDS011;5809;53.262;10.408;2023-05-06T09:37:33;13.27;;;9.05;;
11504;SDS011;5809;53.262;10.408;2023-05-06T09:40:00;12.82;;;9.55;;
11504;SDS011;5809;53.262;10.408;2023-05-06T09:42:29;13.07;;;8.77;;
11504;SDS011;5809;53.262;10.408;2023-05-06T09:44:56;13.15;;;9.13;;
11504;SDS011;5809;53.262;10.408;2023-05-06T09:47:24;13.82;;;9.40;;
11504;SDS011;5809;53.262;10.408;2023-05-06T09:49:55;13.20;;;9.23;;
11504;SDS011;5809;53.262;10.408;2023-05-06T09:52:23;13.32;;;9.63;;
11504;SDS011;5809;53.262;10.408;2023-05-06T09:54:51;10.93;;;8.73;;
11504;SDS011;5809;53.262;10.408;2023-05-06T09:57:19;13.48;;;9.20;;
11504;SDS011;5809;53.262;10.408;2023-05-06T09:59:48;11.02;;;8.70;;
11504;SDS011;5809;53.262;10.408;2023-05-06T10:02:17;14.80;;;9.80;;
11504;SDS011;5809;53.262;10.408;2023-05-06T10:04:45;13.60;;;9.35;;
11504;SDS011;5809;53.262;10.408;2023-05-06T10:07:14;18.42;;;9.75;;
11504;SDS011;5809;53.262;10.408;2023-05-06T10:09:46;13.68;;;10.23;;
11504;SDS011;5809;53.262;10.408;2023-05-06T10:12:15;14.38;;;10.73;;
11504;SDS011;5809;53.262;10.408;2023-05-06T10:14:42;16.25;;;9.95;;
11504;SDS011;5809;53.262;10.408;2023-05-06T10:17:11;18.05;;;10.40;;
11504;SDS011;5809;53.262;10.408;2023-05-06T10:19:39;18.27;;;11.07;;
11504;SDS011;5809;53.262;10.408;2023-05-06T10:22:10;18.03;;;10.60;;
11504;SDS011;5809;53.262;10.408;2023-05-06T10:24:45;17.48;;;11.02;;
11504;SDS011;5809;53.262;10.408;2023-05-06T10:27:17;13.98;;;10.13;;
11504;SDS011;5809;53.262;10.408;2023-05-06T10:29:47;14.65;;;10.63;;
11504;SDS011;5809;53.262;10.408;2023-05-06T10:32:16;14.05;;;10.25;;
11504;SDS011;5809;53.262;10.408;2023-05-06T10:34:46;13.82;;;10.48;;
11504;SDS011;5809;53.262;10.408;2023-05-06T10:37:19;19.33;;;10.88;;
11504;SDS011;5809;53.262;10.408;2023-05-06T10:39:50;16.42;;;10.77;;
11504;SDS011;5809;53.262;10.408;2023-05-06T10:42:18;15.65;;;10.13;;
11504;SDS011;5809;53.262;10.408;2023-05-06T10:44:55;12.43;;;10.20;;
11504;SDS011;5809;53.262;10.408;2023-05-06T10:47:24;15.05;;;10.13;;
11504;SDS011;5809;53.262;10.408;2023-05-06T10:52:44;14.45;;;10.63;;
11504;SDS011;5809;53.262;10.408;2023-05-06T10:55:23;14.60;;;10.60;;
11504;SDS011;5809;53.262;10.408;2023-05-06T10:57:52;18.83;;;11.02;;
11504;SDS011;5809;53.262;10.408;2023-05-06T11:00:20;16.30;;;11.00;;
11504;SDS011;5809;53.262;10.408;2023-05-06T11:02:50;16.95;;;11.07;;
11504;SDS011;5809;53.262;10.408;2023-05-06T11:05:21;13.98;;;10.93;;
11504;SDS011;5809;53.262;10.408;2023-05-06T11:07:48;15.60;;;11.00;;
11504;SDS011;5809;53.262;10.408;2023-05-06T11:10:16;15.95;;;10.82;;
11504;SDS011;5809;53.262;10.408;2023-05-06T11:12:57;15.65;;;11.38;;
11504;SDS011;5809;53.262;10.408;2023-05-06T11:15:25;19.30;;;12.32;;
11504;SDS011;5809;53.262;10.408;2023-05-06T11:18:39;12.73;;;10.82;;
11504;SDS011;5809;53.262;10.408;2023-05-06T11:24:04;14.20;;;10.68;;
11504;SDS011;5809;53.262;10.408;2023-05-06T11:26:32;19.13;;;10.93;;
11504;SDS011;5809;53.262;10.408;2023-05-06T11:29:00;18.02;;;11.52;;
11504;SDS011;5809;53.262;10.408;2023-05-06T11:31:29;18.42;;;11.68;;
11504;SDS011;5809;53.262;10.408;2023-05-06T11:34:04;19.55;;;12.45;;
11504;SDS011;5809;53.262;10.408;2023-05-06T11:36:34;18.00;;;12.00;;
11504;SDS011;5809;53.262;10.408;2023-05-06T11:39:04;15.63;;;11.95;;
11504;SDS011;5809;53.262;10.408;2023-05-06T11:41:33;16.27;;;11.93;;
11504;SDS011;5809;53.262;10.408;2023-05-06T11:44:05;13.45;;;10.75;;
11504;SDS011;5809;53.262;10.408;2023-05-06T11:46:33;15.07;;;11.52;;
11504;SDS011;5809;53.262;10.408;2023-05-06T11:49:00;20.42;;;11.63;;
11504;SDS011;5809;53.262;10.408;2023-05-06T11:51:28;17.45;;;10.25;;
11504;SDS011;5809;53.262;10.408;2023-05-06T11:54:03;16.60;;;11.48;;
11504;SDS011;5809;53.262;10.408;2023-05-06T11:56:44;17.48;;;11.57;;
11504;SDS011;5809;53.262;10.408;2023-05-06T11:59:14;16.85;;;11.88;;
11504;SDS011;5809;53.262;10.408;2023-05-06T12:01:42;17.83;;;12.18;;
11504;SDS011;5809;53.262;10.408;2023-05-06T12:04:10;16.53;;;11.90;;
11504;SDS011;5809;53.262;10.408;2023-05-06T12:06:39;17.67;;;12.20;;
11504;SDS011;5809;53.262;10.408;2023-05-06T12:09:06;16.10;;;11.93;;
11504;SDS011;5809;53.262;10.408;2023-05-06T12:11:37;22.63;;;13.23;;
11504;SDS011;5809;53.262;10.408;2023-05-06T12:14:05;20.17;;;13.38;;
11504;SDS011;5809;53.262;10.408;2023-05-06T12:16:34;21.20;;;14.10;;
11504;SDS011;5809;53.262;10.408;2023-05-06T12:19:02;18.17;;;12.60;;
11504;SDS011;5809;53.262;10.408;2023-05-06T12:21:30;19.60;;;13.83;;
11504;SDS011;5809;53.262;10.408;2023-05-06T12:23:59;18.15;;;12.93;;
11504;SDS011;5809;53.262;10.408;2023-05-06T12:26:26;20.77;;;13.52;;
11504;SDS011;5809;53.262;10.408;2023-05-06T12:29:03;19.47;;;13.60;;
11504;SDS011;5809;53.262;10.408;2023-05-06T12:31:31;17.40;;;12.68;;
11504;SDS011;5809;53.262;10.408;2023-05-06T12:33:58;20.50;;;13.93;;
11504;SDS011;5809;53.262;10.408;2023-05-06T12:36:25;16.77;;;12.38;;
11504;SDS011;5809;53.262;10.408;2023-05-06T12:38:53;16.05;;;11.60;;
11504;SDS011;5809;53.262;10.408;2023-05-06T12:41:24;15.57;;;12.20;;
11504;SDS011;5809;53.262;10.408;2023-05-06T12:44:00;16.48;;;11.65;;
11504;SDS011;5809;53.262;10.408;2023-05-06T12:46:27;17.77;;;11.68;;
11504;SDS011;5809;53.262;10.408;2023-05-06T12:48:54;13.95;;;10.25;;
11504;SDS011;5809;53.262;10.408;2023-05-06T12:51:22;15.05;;;11.07;;
11504;SDS011;5809;53.262;10.408;2023-05-06T12:53:50;14.95;;;11.23;;
11504;SDS011;5809;53.262;10.408;2023-05-06T12:56:18;15.00;;;11.27;;
11504;SDS011;5809;53.262;10.408;2023-05-06T12:58:55;17.13;;;11.18;;
11504;SDS011;5809;53.262;10.408;2023-05-06T13:01:23;13.37;;;11.07;;
11504;SDS011;5809;53.262;10.408;2023-05-06T13:03:50;15.40;;;11.18;;
11504;SDS011;5809;53.262;10.408;2023-05-06T13:06:17;18.73;;;11.73;;
11504;SDS011;5809;53.262;10.408;2023-05-06T13:08:44;15.43;;;10.63;;
11504;SDS011;5809;53.262;10.408;2023-05-06T13:11:11;16.43;;;10.17;;
11504;SDS011;5809;53.262;10.408;2023-05-06T13:13:38;14.10;;;9.73;;
11504;SDS011;5809;53.262;10.408;2023-05-06T13:16:07;13.80;;;9.77;;
11504;SDS011;5809;53.262;10.408;2023-05-06T13:18:34;12.15;;;8.48;;
11504;SDS011;5809;53.262;10.408;2023-05-06T13:21:02;11.27;;;9.25;;
11504;SDS011;5809;53.262;10.408;2023-05-06T13:23:29;13.80;;;9.10;;
11504;SDS011;5809;53.262;10.408;2023-05-06T13:25:59;10.32;;;8.55;;
11504;SDS011;5809;53.262;10.408;2023-05-06T13:28:29;13.38;;;8.60;;
11504;SDS011;5809;53.262;10.408;2023-05-06T13:30:56;14.35;;;8.02;;
11504;SDS011;5809;53.262;10.408;2023-05-06T13:33:25;11.95;;;8.20;;
11504;SDS011;5809;53.262;10.408;2023-05-06T13:35:52;10.02;;;7.55;;
11504;SDS011;5809;53.262;10.408;2023-05-06T13:38:19;12.40;;;8.00;;
11504;SDS011;5809;53.262;10.408;2023-05-06T13:40:47;10.50;;;7.55;;
11504;SDS011;5809;53.262;10.408;2023-05-06T13:43:15;9.07;;;7.60;;
11504;SDS011;5809;53.262;10.408;2023-05-06T13:45:42;9.98;;;7.82;;
11504;SDS011;5809;53.262;10.408;2023-05-06T13:48:09;10.30;;;8.60;;
11504;SDS011;5809;53.262;10.408;2023-05-06T13:50:38;10.00;;;7.95;;
11504;SDS011;5809;53.262;10.408;2023-05-06T13:53:06;10.50;;;7.57;;
11504;SDS011;5809;53.262;10.408;2023-05-06T13:55:33;11.38;;;7.97;;
11504;SDS011;5809;53.262;10.408;2023-05-06T13:58:00;12.50;;;8.80;;
11504;SDS011;5809;53.262;10.408;2023-05-06T14:00:27;12.07;;;8.35;;
11504;SDS011;5809;53.262;10.408;2023-05-06T14:02:54;10.70;;;8.93;;
11504;SDS011;5809;53.262;10.408;2023-05-06T14:05:21;10.95;;;8.70;;
11504;SDS011;5809;53.262;10.408;2023-05-06T14:07:50;11.18;;;8.75;;
11504;SDS011;5809;53.262;10.408;2023-05-06T14:10:17;10.13;;;8.38;;
11504;SDS011;5809;53.262;10.408;2023-05-06T14:12:44;12.15;;;8.52;;
11504;SDS011;5809;53.262;10.408;2023-05-06T14:15:12;10.60;;;8.40;;
11504;SDS011;5809;53.262;10.408;2023-05-06T14:17:40;9.95;;;8.82;;
11504;SDS011;5809;53.262;10.408;2023-05-06T14:20:07;10.60;;;7.82;;
11504;SDS011;5809;53.262;10.408;2023-05-06T14:22:35;12.27;;;8.27;;
11504;SDS011;5809;53.262;10.408;2023-05-06T14:25:04;13.43;;;9.05;;
11504;SDS011;5809;53.262;10.408;2023-05-06T14:27:31;22.63;;;15.90;;
11504;SDS011;5809;53.262;10.408;2023-05-06T14:30:00;13.35;;;10.52;;
11504;SDS011;5809;53.262;10.408;2023-05-06T14:32:29;20.88;;;13.80;;
11504;SDS011;5809;53.262;10.408;2023-05-06T14:34:56;12.82;;;9.60;;
11504;SDS011;5809;53.262;10.408;2023-05-06T14:37:23;12.18;;;9.25;;
11504;SDS011;5809;53.262;10.408;2023-05-06T14:39:50;12.60;;;9.63;;
11504;SDS011;5809;53.262;10.408;2023-05-06T14:42:18;11.82;;;10.13;;
11504;SDS011;5809;53.262;10.408;2023-05-06T14:44:45;12.93;;;9.13;;